首页
METAR-TAF:

METAR-TAF

机场 :

Hondo, 得克萨斯州, 美国

纬度: 29-21-34N, 经度: 099-10-27W, 海拔: 283米

当前天气观测

该预报发布于47分钟前的22:51 UTC
风速10节,风向南转南东
温度 37°C
湿度 29%
气压 1014 hPa
能見度: 16.1公里
天空无云

METAR: KHDO 152251Z AUTO 16010KT 10SM CLR 37/16 A2994 RMK AO2 SLP119 T03720156

时间: 18:38 (23:38 UTC)


TAF: 丢失

超过4000个机场的气象观测和天气预报(METAR&TAF报告)。

可查询的气象台以黄色和红色小点在地图上表示。

将鼠标移到小点上方,可查看气象台名称。

然后点击查看天气观测和预报。

如需切换地图:点击带黑十字的绿色按钮放大地图;点击带横线的绿色按钮缩小地图;或者点击绿色箭头查看邻近地区的地图。


METAR-TAF: